Barefoot Bay, Florida
Current Conditions -  °F | °C
As of 10:53 AM on Monday 24 Nov 2014 (Local Time) from KVRB Reporting Station
Broken Clouds Broken Clouds  
Wind Chill: 79°   Ceiling: 1100
Heat Index: 82°   Visibility: 10mi
Dew Point: 74°   Wind: 9mph
Humidity: 84%   Direction: 210°SSW
Pressure: 30"   Gusts: NA
Location:  27.8606°N, 80.5442°W
Report Text: KVRB 241553Z 21008KT 10SM BKN011 26/23 A3000 RMK AO2 SLP159 T02610233
Loading
Personal Weather Stations






























Interactive Weather Map New forecast layout! Learn more

10-Day Weather Forecast

Advertisements
Track Severe Weather on mobile